If you wish to contribute or participate in the discussions about articles you are invited to join SKYbrary as a registered user

 Actions

Licenciado Gustavo Díaz Ordaz International Airport

From SKYbrary Wiki

MMPR
Airport
ICAO: MMPR – IATA: PVR
Summary
Name Licenciado Gustavo Díaz Ordaz International Airport
Region South America and Caribbean
Territory Mexico MX.gif
Location Puerto Vallarta, Jalisco
Serving Puerto Vallarta
Elevation 7.01 m <br />23 ft <br />23 ft7.01 m <br />
Type large airport
Coordinates 20° 40' 48.30" N, 105° 15' 15.00" W
Runways
Designator Length Width Surface ROPS
4/22 3100 m10,170.604 ft <br /> 45 m147.638 ft <br /> ASP yes/yes


METAR
Observation MMPR 251843Z 00000KT 15SM BKN070 BKN200 30/21 A2982 RMK 8/038 HZY
Station Puerto Vallarta / Lic
Date/Time 25 October 2021 18:43:00
Wind direction
Wind speed 00 kts
Lowest cloud amount broken clouds
Temperature 30°C
Dew point 21°C
Humidity 58%
QNH hPa
Weather condition n/a

International airport 2 nm north west of Puerto Vallarta, Mexico.

Climatology

Tropical Savanna climate (Köppen climate classification Aw)

Maps

Terrain

Loading map...

Airport Layout

Loading map...


Accidents & Serious Incidents at or in vicinity of MMPR

None on SKYbrary